Newtown, Virginia
Current Conditions -  °F | °C
As of 10:15 AM on Thursday 23 Oct 2014 (Local Time) from KXSA Reporting Station
Overcast Overcast  
Wind Chill: 58°   Ceiling: 4100
Heat Index: 58°   Visibility: 10mi
Dew Point: 40°   Wind: 14mph
Humidity: 52%   Direction: 290°WNW
Pressure: 29.91"   Gusts: 21mph
Location:  37.91°N, 77.12°W
Report Text: KXSA 231415Z AUTO 29012G18KT 10SM OVC041 14/05 A2991 RMK AO2 T01440047
Loading
Personal Weather Stations






























Interactive Weather Map
Tropical Storm Tracking
New forecast layout! Learn more

10-Day Weather Forecast

Advertisements
Track Severe Weather on mobile